sensor_id;sensor_type;location;lat;lon;timestamp;P1;durP1;ratioP1;P2;durP2;ratioP2
75603;SDS011;64187;51.010;13.792;2023-12-20T00:00:07;2.80;;;1.33;;
75603;SDS011;64187;51.010;13.792;2023-12-20T00:05:06;2.25;;;1.30;;
75603;SDS011;64187;51.010;13.792;2023-12-20T00:10:06;2.28;;;1.42;;
75603;SDS011;64187;51.010;13.792;2023-12-20T00:15:06;2.67;;;1.30;;
75603;SDS011;64187;51.010;13.792;2023-12-20T00:20:05;2.10;;;1.55;;
75603;SDS011;64187;51.010;13.792;2023-12-20T00:25:05;2.35;;;1.35;;
75603;SDS011;64187;51.010;13.792;2023-12-20T00:30:04;2.53;;;1.50;;
75603;SDS011;64187;51.010;13.792;2023-12-20T00:35:04;1.70;;;1.23;;
75603;SDS011;64187;51.010;13.792;2023-12-20T00:40:03;2.17;;;1.42;;
75603;SDS011;64187;51.010;13.792;2023-12-20T00:45:03;3.88;;;1.42;;
75603;SDS011;64187;51.010;13.792;2023-12-20T00:50:03;1.63;;;1.13;;
75603;SDS011;64187;51.010;13.792;2023-12-20T00:55:02;2.38;;;1.20;;
75603;SDS011;64187;51.010;13.792;2023-12-20T01:00:02;2.28;;;1.40;;
75603;SDS011;64187;51.010;13.792;2023-12-20T01:05:02;1.40;;;1.20;;
75603;SDS011;64187;51.010;13.792;2023-12-20T01:10:01;1.55;;;1.05;;
75603;SDS011;64187;51.010;13.792;2023-12-20T01:15:00;1.73;;;0.93;;
75603;SDS011;64187;51.010;13.792;2023-12-20T01:20:05;1.40;;;0.80;;
75603;SDS011;64187;51.010;13.792;2023-12-20T01:25:08;0.77;;;0.70;;
75603;SDS011;64187;51.010;13.792;2023-12-20T01:30:07;1.77;;;0.90;;
75603;SDS011;64187;51.010;13.792;2023-12-20T01:35:06;2.88;;;1.00;;
75603;SDS011;64187;51.010;13.792;2023-12-20T01:40:06;1.40;;;0.80;;
75603;SDS011;64187;51.010;13.792;2023-12-20T01:45:06;1.13;;;0.68;;
75603;SDS011;64187;51.010;13.792;2023-12-20T01:50:06;1.15;;;0.70;;
75603;SDS011;64187;51.010;13.792;2023-12-20T01:55:07;1.60;;;0.77;;
75603;SDS011;64187;51.010;13.792;2023-12-20T02:00:12;1.08;;;0.68;;
75603;SDS011;64187;51.010;13.792;2023-12-20T02:05:13;0.70;;;0.70;;
75603;SDS011;64187;51.010;13.792;2023-12-20T02:10:12;1.50;;;0.80;;
75603;SDS011;64187;51.010;13.792;2023-12-20T02:15:11;1.25;;;0.70;;
75603;SDS011;64187;51.010;13.792;2023-12-20T02:20:10;0.98;;;0.50;;
75603;SDS011;64187;51.010;13.792;2023-12-20T02:25:10;1.52;;;0.65;;
75603;SDS011;64187;51.010;13.792;2023-12-20T02:30:09;1.58;;;0.75;;
75603;SDS011;64187;51.010;13.792;2023-12-20T02:35:08;0.70;;;0.40;;
75603;SDS011;64187;51.010;13.792;2023-12-20T02:40:08;0.77;;;0.40;;
75603;SDS011;64187;51.010;13.792;2023-12-20T02:45:07;0.55;;;0.30;;
75603;SDS011;64187;51.010;13.792;2023-12-20T02:50:06;0.60;;;0.40;;
75603;SDS011;64187;51.010;13.792;2023-12-20T02:55:06;0.47;;;0.35;;
75603;SDS011;64187;51.010;13.792;2023-12-20T03:00:05;0.60;;;0.35;;
75603;SDS011;64187;51.010;13.792;2023-12-20T03:05:04;0.45;;;0.30;;
75603;SDS011;64187;51.010;13.792;2023-12-20T03:10:04;1.17;;;0.30;;
75603;SDS011;64187;51.010;13.792;2023-12-20T03:15:22;1.65;;;0.35;;
75603;SDS011;64187;51.010;13.792;2023-12-20T03:20:24;0.65;;;0.32;;
75603;SDS011;64187;51.010;13.792;2023-12-20T03:25:24;0.50;;;0.38;;
75603;SDS011;64187;51.010;13.792;2023-12-20T03:30:23;0.43;;;0.30;;
75603;SDS011;64187;51.010;13.792;2023-12-20T03:35:22;0.40;;;0.22;;
75603;SDS011;64187;51.010;13.792;2023-12-20T03:40:21;0.90;;;0.50;;
75603;SDS011;64187;51.010;13.792;2023-12-20T03:45:21;0.32;;;0.30;;
75603;SDS011;64187;51.010;13.792;2023-12-20T03:50:20;0.40;;;0.30;;
75603;SDS011;64187;51.010;13.792;2023-12-20T03:55:20;0.70;;;0.38;;
75603;SDS011;64187;51.010;13.792;2023-12-20T04:00:20;0.35;;;0.13;;
75603;SDS011;64187;51.010;13.792;2023-12-20T04:05:19;1.40;;;0.77;;
75603;SDS011;64187;51.010;13.792;2023-12-20T04:10:18;1.75;;;0.50;;
75603;SDS011;64187;51.010;13.792;2023-12-20T04:15:17;0.75;;;0.38;;
75603;SDS011;64187;51.010;13.792;2023-12-20T04:20:16;2.13;;;0.60;;
75603;SDS011;64187;51.010;13.792;2023-12-20T04:25:15;1.48;;;0.63;;
75603;SDS011;64187;51.010;13.792;2023-12-20T04:30:14;1.50;;;0.70;;
75603;SDS011;64187;51.010;13.792;2023-12-20T04:35:13;1.13;;;0.50;;
75603;SDS011;64187;51.010;13.792;2023-12-20T04:40:12;1.35;;;0.50;;
75603;SDS011;64187;51.010;13.792;2023-12-20T04:45:12;1.42;;;0.68;;
75603;SDS011;64187;51.010;13.792;2023-12-20T04:50:12;0.60;;;0.30;;
75603;SDS011;64187;51.010;13.792;2023-12-20T04:55:12;1.02;;;0.50;;
75603;SDS011;64187;51.010;13.792;2023-12-20T05:00:11;0.73;;;0.50;;
75603;SDS011;64187;51.010;13.792;2023-12-20T05:05:10;0.80;;;0.40;;
75603;SDS011;64187;51.010;13.792;2023-12-20T05:10:09;0.95;;;0.30;;
75603;SDS011;64187;51.010;13.792;2023-12-20T05:15:08;0.38;;;0.20;;
75603;SDS011;64187;51.010;13.792;2023-12-20T05:20:08;0.50;;;0.30;;
75603;SDS011;64187;51.010;13.792;2023-12-20T05:25:07;0.30;;;0.28;;
75603;SDS011;64187;51.010;13.792;2023-12-20T05:30:06;0.43;;;0.30;;
75603;SDS011;64187;51.010;13.792;2023-12-20T05:35:05;0.70;;;0.40;;
75603;SDS011;64187;51.010;13.792;2023-12-20T05:40:04;0.55;;;0.30;;
75603;SDS011;64187;51.010;13.792;2023-12-20T05:45:04;2.10;;;0.80;;
75603;SDS011;64187;51.010;13.792;2023-12-20T05:50:04;1.27;;;0.40;;
75603;SDS011;64187;51.010;13.792;2023-12-20T05:55:03;0.88;;;0.45;;
75603;SDS011;64187;51.010;13.792;2023-12-20T06:00:02;1.17;;;0.30;;
75603;SDS011;64187;51.010;13.792;2023-12-20T06:05:09;0.98;;;0.35;;
75603;SDS011;64187;51.010;13.792;2023-12-20T06:10:08;0.47;;;0.20;;
75603;SDS011;64187;51.010;13.792;2023-12-20T06:15:08;0.77;;;0.38;;
75603;SDS011;64187;51.010;13.792;2023-12-20T06:20:07;0.70;;;0.35;;
75603;SDS011;64187;51.010;13.792;2023-12-20T06:25:07;0.30;;;0.30;;
75603;SDS011;64187;51.010;13.792;2023-12-20T06:30:06;0.68;;;0.43;;
75603;SDS011;64187;51.010;13.792;2023-12-20T06:35:08;0.70;;;0.50;;
75603;SDS011;64187;51.010;13.792;2023-12-20T06:40:08;1.23;;;0.63;;
75603;SDS011;64187;51.010;13.792;2023-12-20T06:45:15;1.40;;;0.70;;
75603;SDS011;64187;51.010;13.792;2023-12-20T06:50:14;1.30;;;0.88;;
75603;SDS011;64187;51.010;13.792;2023-12-20T06:55:13;1.80;;;0.77;;
75603;SDS011;64187;51.010;13.792;2023-12-20T07:00:12;1.38;;;0.80;;
75603;SDS011;64187;51.010;13.792;2023-12-20T07:05:12;1.10;;;0.90;;
75603;SDS011;64187;51.010;13.792;2023-12-20T07:10:11;2.00;;;1.02;;
75603;SDS011;64187;51.010;13.792;2023-12-20T07:15:10;1.40;;;1.10;;
75603;SDS011;64187;51.010;13.792;2023-12-20T07:20:09;1.25;;;0.90;;
75603;SDS011;64187;51.010;13.792;2023-12-20T07:25:09;1.20;;;1.00;;
75603;SDS011;64187;51.010;13.792;2023-12-20T07:30:09;2.22;;;1.10;;
75603;SDS011;64187;51.010;13.792;2023-12-20T07:35:08;2.00;;;1.05;;
75603;SDS011;64187;51.010;13.792;2023-12-20T07:40:07;1.65;;;1.25;;
75603;SDS011;64187;51.010;13.792;2023-12-20T07:45:07;1.80;;;1.38;;
75603;SDS011;64187;51.010;13.792;2023-12-20T07:50:06;2.38;;;1.40;;
75603;SDS011;64187;51.010;13.792;2023-12-20T07:55:05;1.77;;;1.38;;
75603;SDS011;64187;51.010;13.792;2023-12-20T08:00:05;3.65;;;1.67;;
75603;SDS011;64187;51.010;13.792;2023-12-20T08:05:04;2.40;;;1.60;;
75603;SDS011;64187;51.010;13.792;2023-12-20T08:10:03;2.28;;;1.85;;
75603;SDS011;64187;51.010;13.792;2023-12-20T08:15:03;3.83;;;1.75;;
75603;SDS011;64187;51.010;13.792;2023-12-20T08:20:02;2.17;;;1.20;;
75603;SDS011;64187;51.010;13.792;2023-12-20T08:25:02;1.95;;;1.05;;
75603;SDS011;64187;51.010;13.792;2023-12-20T08:30:01;3.20;;;1.48;;
75603;SDS011;64187;51.010;13.792;2023-12-20T08:35:00;2.08;;;1.05;;
75603;SDS011;64187;51.010;13.792;2023-12-20T08:39:59;1.55;;;1.15;;
75603;SDS011;64187;51.010;13.792;2023-12-20T08:44:58;4.32;;;1.15;;
75603;SDS011;64187;51.010;13.792;2023-12-20T08:49:57;1.60;;;0.85;;
75603;SDS011;64187;51.010;13.792;2023-12-20T08:54:58;1.95;;;1.17;;
75603;SDS011;64187;51.010;13.792;2023-12-20T08:59:57;0.75;;;0.55;;
75603;SDS011;64187;51.010;13.792;2023-12-20T09:04:57;2.88;;;0.88;;
75603;SDS011;64187;51.010;13.792;2023-12-20T09:09:56;2.33;;;1.02;;
75603;SDS011;64187;51.010;13.792;2023-12-20T09:14:56;2.50;;;0.93;;
75603;SDS011;64187;51.010;13.792;2023-12-20T09:19:55;1.20;;;0.73;;
75603;SDS011;64187;51.010;13.792;2023-12-20T09:24:54;1.30;;;0.65;;
75603;SDS011;64187;51.010;13.792;2023-12-20T09:29:52;4.25;;;1.23;;
75603;SDS011;64187;51.010;13.792;2023-12-20T09:34:52;2.63;;;0.85;;
75603;SDS011;64187;51.010;13.792;2023-12-20T09:39:51;1.23;;;0.63;;
75603;SDS011;64187;51.010;13.792;2023-12-20T09:44:50;1.50;;;0.70;;
75603;SDS011;64187;51.010;13.792;2023-12-20T09:49:49;1.83;;;0.80;;
75603;SDS011;64187;51.010;13.792;2023-12-20T09:54:49;2.05;;;1.08;;
75603;SDS011;64187;51.010;13.792;2023-12-20T09:59:51;5.65;;;1.23;;
75603;SDS011;64187;51.010;13.792;2023-12-20T10:04:50;2.10;;;0.82;;
75603;SDS011;64187;51.010;13.792;2023-12-20T10:09:49;3.55;;;1.38;;
75603;SDS011;64187;51.010;13.792;2023-12-20T10:14:52;2.78;;;0.73;;
75603;SDS011;64187;51.010;13.792;2023-12-20T10:19:51;1.23;;;0.50;;
75603;SDS011;64187;51.010;13.792;2023-12-20T10:24:50;1.60;;;0.65;;
75603;SDS011;64187;51.010;13.792;2023-12-20T10:29:49;2.85;;;1.13;;
75603;SDS011;64187;51.010;13.792;2023-12-20T10:34:49;2.03;;;0.98;;
75603;SDS011;64187;51.010;13.792;2023-12-20T10:39:49;4.25;;;1.15;;
75603;SDS011;64187;51.010;13.792;2023-12-20T10:44:50;3.50;;;0.90;;
75603;SDS011;64187;51.010;13.792;2023-12-20T10:49:49;3.03;;;1.13;;
75603;SDS011;64187;51.010;13.792;2023-12-20T10:54:51;4.05;;;0.85;;
75603;SDS011;64187;51.010;13.792;2023-12-20T10:59:50;2.10;;;1.10;;
75603;SDS011;64187;51.010;13.792;2023-12-20T11:04:53;2.58;;;0.75;;
75603;SDS011;64187;51.010;13.792;2023-12-20T11:09:59;3.75;;;1.00;;
75603;SDS011;64187;51.010;13.792;2023-12-20T11:15:11;1.35;;;0.75;;
75603;SDS011;64187;51.010;13.792;2023-12-20T11:20:11;2.65;;;0.88;;
75603;SDS011;64187;51.010;13.792;2023-12-20T11:25:10;1.67;;;0.77;;
75603;SDS011;64187;51.010;13.792;2023-12-20T11:30:10;5.28;;;0.90;;
75603;SDS011;64187;51.010;13.792;2023-12-20T11:40:12;2.17;;;0.88;;
75603;SDS011;64187;51.010;13.792;2023-12-20T11:45:14;4.05;;;1.27;;
75603;SDS011;64187;51.010;13.792;2023-12-20T11:50:14;1.95;;;0.70;;
75603;SDS011;64187;51.010;13.792;2023-12-20T11:55:13;3.83;;;1.95;;
75603;SDS011;64187;51.010;13.792;2023-12-20T12:00:13;4.32;;;1.73;;
75603;SDS011;64187;51.010;13.792;2023-12-20T12:05:12;3.05;;;0.95;;
75603;SDS011;64187;51.010;13.792;2023-12-20T12:10:11;1.83;;;0.70;;
75603;SDS011;64187;51.010;13.792;2023-12-20T12:15:10;4.25;;;1.08;;
75603;SDS011;64187;51.010;13.792;2023-12-20T12:20:09;2.72;;;0.90;;
75603;SDS011;64187;51.010;13.792;2023-12-20T12:25:10;3.88;;;0.80;;
75603;SDS011;64187;51.010;13.792;2023-12-20T12:30:10;3.50;;;1.00;;
75603;SDS011;64187;51.010;13.792;2023-12-20T12:35:11;1.70;;;0.90;;
75603;SDS011;64187;51.010;13.792;2023-12-20T12:40:11;5.78;;;1.00;;
75603;SDS011;64187;51.010;13.792;2023-12-20T12:45:11;1.38;;;0.75;;
75603;SDS011;64187;51.010;13.792;2023-12-20T12:50:10;2.67;;;1.00;;
75603;SDS011;64187;51.010;13.792;2023-12-20T12:55:09;3.88;;;0.75;;
75603;SDS011;64187;51.010;13.792;2023-12-20T13:00:08;1.90;;;0.90;;
75603;SDS011;64187;51.010;13.792;2023-12-20T13:05:09;3.58;;;1.02;;
75603;SDS011;64187;51.010;13.792;2023-12-20T13:10:08;3.22;;;1.02;;
75603;SDS011;64187;51.010;13.792;2023-12-20T13:15:09;4.43;;;1.17;;
75603;SDS011;64187;51.010;13.792;2023-12-20T13:20:08;4.55;;;1.30;;
75603;SDS011;64187;51.010;13.792;2023-12-20T13:25:07;2.20;;;0.88;;
75603;SDS011;64187;51.010;13.792;2023-12-20T13:30:06;3.25;;;1.10;;
75603;SDS011;64187;51.010;13.792;2023-12-20T13:35:06;1.73;;;0.80;;
75603;SDS011;64187;51.010;13.792;2023-12-20T13:40:05;4.70;;;1.00;;
75603;SDS011;64187;51.010;13.792;2023-12-20T13:45:05;3.35;;;1.10;;
75603;SDS011;64187;51.010;13.792;2023-12-20T13:50:05;2.58;;;1.00;;
75603;SDS011;64187;51.010;13.792;2023-12-20T13:55:05;1.20;;;0.70;;
75603;SDS011;64187;51.010;13.792;2023-12-20T14:00:06;2.67;;;0.80;;
75603;SDS011;64187;51.010;13.792;2023-12-20T14:05:13;2.58;;;0.90;;
75603;SDS011;64187;51.010;13.792;2023-12-20T14:10:16;3.28;;;0.95;;
75603;SDS011;64187;51.010;13.792;2023-12-20T14:15:15;2.58;;;0.80;;
75603;SDS011;64187;51.010;13.792;2023-12-20T14:20:14;2.70;;;1.00;;
75603;SDS011;64187;51.010;13.792;2023-12-20T14:25:14;2.53;;;1.00;;
75603;SDS011;64187;51.010;13.792;2023-12-20T14:30:13;1.27;;;0.82;;
75603;SDS011;64187;51.010;13.792;2023-12-20T14:35:13;1.67;;;0.70;;
75603;SDS011;64187;51.010;13.792;2023-12-20T14:40:13;2.85;;;1.05;;
75603;SDS011;64187;51.010;13.792;2023-12-20T14:45:15;2.40;;;1.00;;
75603;SDS011;64187;51.010;13.792;2023-12-20T14:50:16;3.10;;;1.00;;
75603;SDS011;64187;51.010;13.792;2023-12-20T14:55:17;2.75;;;0.80;;
75603;SDS011;64187;51.010;13.792;2023-12-20T15:00:17;3.20;;;1.35;;
75603;SDS011;64187;51.010;13.792;2023-12-20T15:05:16;3.38;;;1.00;;
75603;SDS011;64187;51.010;13.792;2023-12-20T15:10:16;1.52;;;0.90;;
75603;SDS011;64187;51.010;13.792;2023-12-20T15:15:18;0.93;;;0.45;;
75603;SDS011;64187;51.010;13.792;2023-12-20T15:20:19;2.88;;;0.70;;
75603;SDS011;64187;51.010;13.792;2023-12-20T15:25:19;2.10;;;0.80;;
75603;SDS011;64187;51.010;13.792;2023-12-20T15:30:20;2.15;;;0.85;;
75603;SDS011;64187;51.010;13.792;2023-12-20T15:35:20;1.73;;;0.95;;
75603;SDS011;64187;51.010;13.792;2023-12-20T15:40:19;2.47;;;0.70;;
75603;SDS011;64187;51.010;13.792;2023-12-20T15:45:18;2.40;;;0.68;;
75603;SDS011;64187;51.010;13.792;2023-12-20T15:50:17;0.90;;;0.55;;
75603;SDS011;64187;51.010;13.792;2023-12-20T15:55:16;1.17;;;0.75;;
75603;SDS011;64187;51.010;13.792;2023-12-20T16:00:15;2.38;;;0.80;;
75603;SDS011;64187;51.010;13.792;2023-12-20T16:05:15;2.15;;;0.77;;
75603;SDS011;64187;51.010;13.792;2023-12-20T16:10:14;3.40;;;0.95;;
75603;SDS011;64187;51.010;13.792;2023-12-20T16:15:13;1.23;;;0.90;;
75603;SDS011;64187;51.010;13.792;2023-12-20T16:20:12;1.55;;;0.95;;
75603;SDS011;64187;51.010;13.792;2023-12-20T16:25:12;3.20;;;0.80;;
75603;SDS011;64187;51.010;13.792;2023-12-20T16:30:11;2.00;;;1.00;;
75603;SDS011;64187;51.010;13.792;2023-12-20T16:35:10;1.98;;;0.80;;
75603;SDS011;64187;51.010;13.792;2023-12-20T16:40:10;4.47;;;0.90;;
75603;SDS011;64187;51.010;13.792;2023-12-20T16:45:11;3.30;;;1.38;;
75603;SDS011;64187;51.010;13.792;2023-12-20T16:50:10;1.40;;;0.80;;
75603;SDS011;64187;51.010;13.792;2023-12-20T16:55:10;2.42;;;1.00;;
75603;SDS011;64187;51.010;13.792;2023-12-20T17:00:10;5.80;;;1.05;;
75603;SDS011;64187;51.010;13.792;2023-12-20T17:05:09;1.60;;;0.70;;
75603;SDS011;64187;51.010;13.792;2023-12-20T17:10:08;1.60;;;0.80;;
75603;SDS011;64187;51.010;13.792;2023-12-20T17:15:07;3.42;;;1.10;;
75603;SDS011;64187;51.010;13.792;2023-12-20T17:20:07;2.60;;;1.02;;
75603;SDS011;64187;51.010;13.792;2023-12-20T17:25:06;3.78;;;1.00;;
75603;SDS011;64187;51.010;13.792;2023-12-20T17:35:09;1.75;;;0.77;;
75603;SDS011;64187;51.010;13.792;2023-12-20T17:40:08;2.75;;;1.30;;
75603;SDS011;64187;51.010;13.792;2023-12-20T17:45:07;4.13;;;0.90;;
75603;SDS011;64187;51.010;13.792;2023-12-20T17:50:06;1.98;;;1.02;;
75603;SDS011;64187;51.010;13.792;2023-12-20T17:55:06;3.00;;;1.05;;
75603;SDS011;64187;51.010;13.792;2023-12-20T18:00:39;4.55;;;1.10;;
75603;SDS011;64187;51.010;13.792;2023-12-20T18:05:34;3.15;;;1.52;;
75603;SDS011;64187;51.010;13.792;2023-12-20T18:10:33;3.88;;;1.10;;
75603;SDS011;64187;51.010;13.792;2023-12-20T18:15:32;1.67;;;1.10;;
75603;SDS011;64187;51.010;13.792;2023-12-20T18:20:31;1.98;;;1.20;;
75603;SDS011;64187;51.010;13.792;2023-12-20T18:25:30;2.58;;;1.33;;
75603;SDS011;64187;51.010;13.792;2023-12-20T18:30:29;6.40;;;2.53;;
75603;SDS011;64187;51.010;13.792;2023-12-20T18:35:28;4.07;;;1.75;;
75603;SDS011;64187;51.010;13.792;2023-12-20T18:40:26;5.93;;;1.92;;
75603;SDS011;64187;51.010;13.792;2023-12-20T18:45:28;2.97;;;1.85;;
75603;SDS011;64187;51.010;13.792;2023-12-20T18:50:27;4.68;;;1.20;;
75603;SDS011;64187;51.010;13.792;2023-12-20T18:55:26;5.07;;;1.48;;
75603;SDS011;64187;51.010;13.792;2023-12-20T19:00:25;4.65;;;2.40;;
75603;SDS011;64187;51.010;13.792;2023-12-20T19:05:24;6.00;;;2.05;;
75603;SDS011;64187;51.010;13.792;2023-12-20T19:10:25;5.38;;;2.28;;
75603;SDS011;64187;51.010;13.792;2023-12-20T19:15:25;3.72;;;1.90;;
75603;SDS011;64187;51.010;13.792;2023-12-20T19:20:24;4.72;;;1.90;;
75603;SDS011;64187;51.010;13.792;2023-12-20T19:25:22;4.30;;;2.00;;
75603;SDS011;64187;51.010;13.792;2023-12-20T19:30:21;5.20;;;1.95;;
75603;SDS011;64187;51.010;13.792;2023-12-20T19:35:20;3.53;;;2.20;;
75603;SDS011;64187;51.010;13.792;2023-12-20T19:40:19;5.38;;;3.13;;
75603;SDS011;64187;51.010;13.792;2023-12-20T19:45:18;5.03;;;2.33;;
75603;SDS011;64187;51.010;13.792;2023-12-20T19:50:17;6.88;;;2.83;;
75603;SDS011;64187;51.010;13.792;2023-12-20T19:55:17;4.85;;;2.42;;
75603;SDS011;64187;51.010;13.792;2023-12-20T20:00:16;3.30;;;1.27;;
75603;SDS011;64187;51.010;13.792;2023-12-20T20:05:15;4.97;;;1.45;;
75603;SDS011;64187;51.010;13.792;2023-12-20T20:10:14;6.55;;;1.67;;
75603;SDS011;64187;51.010;13.792;2023-12-20T20:15:13;1.65;;;0.70;;
75603;SDS011;64187;51.010;13.792;2023-12-20T20:20:12;2.47;;;1.48;;
75603;SDS011;64187;51.010;13.792;2023-12-20T20:25:11;1.67;;;0.90;;
75603;SDS011;64187;51.010;13.792;2023-12-20T20:30:10;1.98;;;1.00;;
75603;SDS011;64187;51.010;13.792;2023-12-20T20:35:09;2.95;;;0.93;;
75603;SDS011;64187;51.010;13.792;2023-12-20T20:40:08;1.27;;;0.88;;
75603;SDS011;64187;51.010;13.792;2023-12-20T20:45:08;1.63;;;0.88;;
75603;SDS011;64187;51.010;13.792;2023-12-20T20:50:07;1.35;;;0.68;;
75603;SDS011;64187;51.010;13.792;2023-12-20T20:55:08;1.00;;;0.70;;
75603;SDS011;64187;51.010;13.792;2023-12-20T21:00:08;1.38;;;0.60;;
75603;SDS011;64187;51.010;13.792;2023-12-20T21:05:07;0.90;;;0.50;;
75603;SDS011;64187;51.010;13.792;2023-12-20T21:10:07;0.63;;;0.52;;
75603;SDS011;64187;51.010;13.792;2023-12-20T21:15:07;1.05;;;0.68;;
75603;SDS011;64187;51.010;13.792;2023-12-20T21:20:06;1.75;;;0.60;;
75603;SDS011;64187;51.010;13.792;2023-12-20T21:25:06;0.90;;;0.50;;
75603;SDS011;64187;51.010;13.792;2023-12-20T21:30:07;0.60;;;0.55;;
75603;SDS011;64187;51.010;13.792;2023-12-20T21:35:08;2.33;;;0.60;;
75603;SDS011;64187;51.010;13.792;2023-12-20T21:40:08;0.63;;;0.57;;
75603;SDS011;64187;51.010;13.792;2023-12-20T21:45:07;1.02;;;0.45;;
75603;SDS011;64187;51.010;13.792;2023-12-20T21:50:06;1.25;;;0.45;;
75603;SDS011;64187;51.010;13.792;2023-12-20T21:55:06;0.70;;;0.40;;
75603;SDS011;64187;51.010;13.792;2023-12-20T22:00:05;2.22;;;1.30;;
75603;SDS011;64187;51.010;13.792;2023-12-20T22:05:07;0.80;;;0.50;;
75603;SDS011;64187;51.010;13.792;2023-12-20T22:10:06;0.70;;;0.50;;
75603;SDS011;64187;51.010;13.792;2023-12-20T22:15:06;1.05;;;0.50;;
75603;SDS011;64187;51.010;13.792;2023-12-20T22:20:05;0.40;;;0.40;;
75603;SDS011;64187;51.010;13.792;2023-12-20T22:25:05;1.00;;;0.30;;
75603;SDS011;64187;51.010;13.792;2023-12-20T22:30:05;0.73;;;0.40;;
75603;SDS011;64187;51.010;13.792;2023-12-20T22:35:05;0.85;;;0.40;;
75603;SDS011;64187;51.010;13.792;2023-12-20T22:40:05;0.47;;;0.43;;
75603;SDS011;64187;51.010;13.792;2023-12-20T22:45:05;0.98;;;0.50;;
75603;SDS011;64187;51.010;13.792;2023-12-20T22:50:04;0.88;;;0.65;;
75603;SDS011;64187;51.010;13.792;2023-12-20T22:55:04;1.10;;;0.50;;
75603;SDS011;64187;51.010;13.792;2023-12-20T23:00:04;0.65;;;0.30;;
75603;SDS011;64187;51.010;13.792;2023-12-20T23:05:07;1.75;;;0.40;;
75603;SDS011;64187;51.010;13.792;2023-12-20T23:10:07;1.10;;;0.40;;
75603;SDS011;64187;51.010;13.792;2023-12-20T23:15:06;0.60;;;0.50;;
75603;SDS011;64187;51.010;13.792;2023-12-20T23:20:05;1.92;;;0.55;;
75603;SDS011;64187;51.010;13.792;2023-12-20T23:25:05;1.33;;;0.50;;
75603;SDS011;64187;51.010;13.792;2023-12-20T23:30:05;1.48;;;0.55;;
75603;SDS011;64187;51.010;13.792;2023-12-20T23:35:04;2.55;;;0.32;;
75603;SDS011;64187;51.010;13.792;2023-12-20T23:40:13;1.23;;;0.50;;
75603;SDS011;64187;51.010;13.792;2023-12-20T23:45:13;0.90;;;0.40;;
75603;SDS011;64187;51.010;13.792;2023-12-20T23:50:12;0.82;;;0.35;;
75603;SDS011;64187;51.010;13.792;2023-12-20T23:55:11;0.65;;;0.30;;
